Time;durP1;ratioP1;P1;durP2;ratioP2;P2;SDS_P1;SDS_P2;PMS_P1;PMS_P2;Temp;Humidity;BMP_temperature;BMP_pressure;BME280_temperature;BME280_humidity;BME280_pressure;Samples;Min_cycle;Max_cycle;Signal;HPM_P1;HPM_P2
2021/11/07 00:00:37;;;;;;;11.10;7.63;;;22.20;53.40;;;;;;5050542;28;20409;-76
2021/11/07 00:03:12;;;;;;;10.63;7.23;;;22.20;53.40;;;;;;5049562;28;20208;-76
2021/11/07 00:05:56;;;;;;;8.10;6.83;;;22.20;53.50;;;;;;5032262;28;20409;-76
2021/11/07 00:08:36;;;;;;;9.47;8.40;;;22.20;53.50;;;;;;5050278;28;20440;-76
2021/11/07 00:11:08;;;;;;;10.90;7.00;;;22.10;53.40;;;;;;5032674;28;20548;-78
2021/11/07 00:13:35;;;;;;;9.23;7.47;;;22.10;53.40;;;;;;5052002;28;20946;-78
2021/11/07 00:16:08;;;;;;;9.40;7.20;;;22.10;53.40;;;;;;5052692;28;20441;-78
2021/11/07 00:18:39;;;;;;;10.60;7.47;;;22.10;53.40;;;;;;5038330;28;20446;-78
2021/11/07 00:21:16;;;;;;;7.60;6.50;;;22.10;53.40;;;;;;5038041;28;20438;-78
2021/11/07 00:23:52;;;;;;;9.07;6.77;;;22.10;53.40;;;;;;5038329;28;20424;-78
2021/11/07 00:26:27;;;;;;;8.40;7.00;;;22.10;53.50;;;;;;5038132;28;20402;-78
2021/11/07 00:29:01;;;;;;;8.13;6.30;;;22.10;53.40;;;;;;5038180;28;20405;-78
2021/11/07 00:36:42;;;;;;;9.17;6.47;;;22.10;53.50;;;;;;5054539;28;20210;-78
2021/11/07 00:39:25;;;;;;;9.80;7.20;;;22.10;53.50;;;;;;5031741;28;20882;-79
2021/11/07 00:44:29;;;;;;;11.00;6.63;;;22.10;53.50;;;;;;5053818;28;20414;-78
2021/11/07 00:47:03;;;;;;;8.57;6.30;;;22.10;53.50;;;;;;5035163;28;20176;-78
2021/11/07 00:49:40;;;;;;;8.23;5.93;;;22.10;53.50;;;;;;5053679;28;20414;-78
2021/11/07 00:55:12;;;;;;;9.03;6.70;;;22.10;53.50;;;;;;5033145;28;20407;-78
2021/11/07 01:00:13;;;;;;;10.20;7.20;;;22.10;53.50;;;;;;5053839;28;20416;-78
2021/11/07 01:02:40;;;;;;;12.67;7.23;;;22.10;53.50;;;;;;5052700;28;20176;-78
2021/11/07 01:05:15;;;;;;;8.80;6.77;;;22.00;53.40;;;;;;5032186;28;20414;-78
2021/11/07 01:07:40;;;;;;;7.27;6.47;;;22.10;53.50;;;;;;5034606;28;20418;-78
2021/11/07 01:10:08;;;;;;;9.53;6.70;;;22.00;53.40;;;;;;5053334;28;20449;-78
2021/11/07 01:12:34;;;;;;;11.13;7.40;;;22.00;53.40;;;;;;5034167;28;20202;-78
2021/11/07 01:14:59;;;;;;;8.07;6.40;;;22.00;53.40;;;;;;5052961;28;20442;-78
2021/11/07 01:17:25;;;;;;;8.23;6.20;;;22.00;53.40;;;;;;5035587;28;20571;-78
2021/11/07 01:19:54;;;;;;;8.70;6.87;;;22.00;53.40;;;;;;5053148;28;20225;-78
2021/11/07 01:22:27;;;;;;;7.20;5.93;;;22.00;53.40;;;;;;5032845;28;20412;-78
2021/11/07 01:24:56;;;;;;;8.53;6.77;;;22.00;53.40;;;;;;5052919;28;20509;-78
2021/11/07 01:27:30;;;;;;;7.83;5.80;;;22.00;53.40;;;;;;5034381;28;20429;-78
2021/11/07 01:29:57;;;;;;;8.90;6.53;;;22.00;53.40;;;;;;5051116;28;20486;-78
2021/11/07 01:32:24;;;;;;;9.30;5.67;;;22.00;53.40;;;;;;5035033;28;20473;-78
2021/11/07 01:37:22;;;;;;;8.73;6.27;;;22.00;53.40;;;;;;5053066;28;20482;-78
2021/11/07 01:42:34;;;;;;;8.33;6.70;;;22.00;53.40;;;;;;5053278;28;20415;-78
2021/11/07 01:45:06;;;;;;;6.67;5.80;;;22.00;53.40;;;;;;5027828;28;20429;-79
2021/11/07 01:47:37;;;;;;;9.67;6.53;;;22.00;53.40;;;;;;5053481;28;20467;-78
2021/11/07 01:50:04;;;;;;;8.67;6.80;;;22.00;53.40;;;;;;5034109;28;20411;-78
2021/11/07 01:52:35;;;;;;;8.77;6.13;;;22.00;53.50;;;;;;5035586;28;20406;-78
2021/11/07 01:55:05;;;;;;;6.37;5.70;;;22.00;53.40;;;;;;5035236;28;20465;-78
2021/11/07 01:57:32;;;;;;;7.30;6.03;;;22.00;53.40;;;;;;5034991;28;20419;-78
2021/11/07 02:00:02;;;;;;;8.30;6.93;;;22.00;53.40;;;;;;5034243;28;20445;-78
2021/11/07 02:02:31;;;;;;;8.37;6.30;;;22.00;53.40;;;;;;5032334;28;20428;-78
2021/11/07 02:04:57;;;;;;;8.20;5.83;;;22.00;53.50;;;;;;5051065;28;20414;-78
2021/11/07 02:07:23;;;;;;;6.97;5.73;;;22.00;53.50;;;;;;5034935;28;20429;-78
2021/11/07 02:09:50;;;;;;;7.60;5.50;;;22.00;53.40;;;;;;5035333;28;20419;-78
2021/11/07 02:12:19;;;;;;;9.07;6.20;;;22.00;53.40;;;;;;5053513;28;20403;-78
2021/11/07 02:14:45;;;;;;;6.13;5.63;;;21.90;53.40;;;;;;5052648;28;20442;-79
2021/11/07 02:17:11;;;;;;;7.73;6.30;;;22.00;53.40;;;;;;5035603;28;20454;-78
2021/11/07 02:19:41;;;;;;;7.77;5.97;;;22.00;53.40;;;;;;5053313;28;20457;-78
2021/11/07 02:22:06;;;;;;;7.93;6.93;;;22.00;53.40;;;;;;5035449;28;20428;-78
2021/11/07 02:24:36;;;;;;;7.10;5.70;;;22.00;53.40;;;;;;5035557;28;20418;-78
2021/11/07 02:27:04;;;;;;;8.70;5.97;;;22.00;53.40;;;;;;5035429;28;20179;-78
2021/11/07 02:29:30;;;;;;;6.07;5.17;;;22.00;53.50;;;;;;5035963;28;20449;-79
2021/11/07 02:31:57;;;;;;;6.77;5.50;;;21.90;53.40;;;;;;5034968;28;20438;-78
2021/11/07 02:34:28;;;;;;;8.07;5.33;;;21.90;53.40;;;;;;5035321;28;20446;-78
2021/11/07 02:36:55;;;;;;;6.90;4.93;;;21.90;53.40;;;;;;5052382;28;20407;-78
2021/11/07 02:39:22;;;;;;;6.70;6.00;;;21.90;53.40;;;;;;5051119;28;20454;-78
2021/11/07 02:41:48;;;;;;;6.47;5.10;;;21.90;53.40;;;;;;5053090;28;20935;-78
2021/11/07 02:44:36;;;;;;;7.83;5.60;;;21.90;53.40;;;;;;5052326;28;20398;-78
2021/11/07 02:47:07;;;;;;;6.53;5.47;;;22.00;53.40;;;;;;5052374;28;21001;-78
2021/11/07 02:49:33;;;;;;;7.57;4.63;;;21.90;53.40;;;;;;5052864;28;20391;-78
2021/11/07 02:52:00;;;;;;;7.30;5.03;;;21.90;53.40;;;;;;5052282;28;20421;-78
2021/11/07 02:54:27;;;;;;;5.90;5.30;;;21.90;53.40;;;;;;5052185;28;20436;-78
2021/11/07 02:56:55;;;;;;;7.03;5.33;;;21.90;54.00;;;;;;5052368;28;20414;-78
2021/11/07 02:59:26;;;;;;;7.07;5.40;;;21.90;53.40;;;;;;5034784;28;20458;-78
2021/11/07 03:01:54;;;;;;;5.70;5.10;;;21.90;53.40;;;;;;5034815;28;20438;-79
2021/11/07 03:04:20;;;;;;;7.37;5.70;;;21.90;53.40;;;;;;5050961;28;20423;-79
2021/11/07 03:06:46;;;;;;;6.80;5.13;;;21.90;53.40;;;;;;5034836;28;20925;-79
2021/11/07 03:09:17;;;;;;;6.57;5.20;;;21.90;53.40;;;;;;5034453;28;20421;-80
2021/11/07 03:11:43;;;;;;;5.50;5.00;;;21.90;53.40;;;;;;5034474;28;20403;-79
2021/11/07 03:14:13;;;;;;;8.20;4.93;;;21.90;53.40;;;;;;5051921;28;20465;-79
2021/11/07 03:16:39;;;;;;;8.00;5.10;;;21.90;53.40;;;;;;5034541;28;20423;-78
2021/11/07 03:19:05;;;;;;;5.87;4.77;;;21.90;53.40;;;;;;5034022;28;20461;-79
2021/11/07 03:21:30;;;;;;;4.50;4.10;;;21.90;53.40;;;;;;5051689;28;20557;-79
2021/11/07 03:23:57;;;;;;;6.20;4.27;;;21.90;53.40;;;;;;5034355;28;20176;-79
2021/11/07 03:26:25;;;;;;;5.57;4.90;;;21.90;53.40;;;;;;5034075;28;20171;-79
2021/11/07 03:28:55;;;;;;;5.60;4.27;;;21.90;53.40;;;;;;5034076;28;20425;-79
2021/11/07 03:34:03;;;;;;;4.93;3.87;;;21.90;53.40;;;;;;5051850;28;20469;-79
2021/11/07 03:36:42;;;;;;;5.97;4.80;;;21.80;53.30;;;;;;5033879;28;20438;-79
2021/11/07 03:39:08;;;;;;;6.97;4.70;;;21.90;53.40;;;;;;5034222;28;20501;-79
2021/11/07 03:41:34;;;;;;;6.40;5.03;;;21.80;53.30;;;;;;5033880;28;20411;-78
2021/11/07 03:44:00;;;;;;;6.30;5.00;;;21.80;53.30;;;;;;5034550;28;20464;-79
2021/11/07 03:46:26;;;;;;;5.83;5.17;;;21.80;53.30;;;;;;5052373;28;20206;-79
2021/11/07 03:48:52;;;;;;;5.53;4.00;;;21.80;53.40;;;;;;5033982;28;20179;-79
2021/11/07 03:51:18;;;;;;;6.03;4.33;;;21.90;53.40;;;;;;5035435;28;20784;-79
2021/11/07 03:53:44;;;;;;;5.40;4.30;;;21.80;53.40;;;;;;5037455;28;20457;-79
2021/11/07 03:56:10;;;;;;;5.10;4.60;;;21.90;53.40;;;;;;5055865;28;20178;-79
2021/11/07 03:58:36;;;;;;;6.30;4.47;;;21.80;53.30;;;;;;5037763;28;20526;-79
2021/11/07 04:01:02;;;;;;;5.20;4.70;;;21.80;53.30;;;;;;5037972;28;20414;-79
2021/11/07 04:03:28;;;;;;;6.40;4.40;;;21.80;53.30;;;;;;5055173;28;20679;-78
2021/11/07 04:05:54;;;;;;;5.73;4.30;;;21.80;53.30;;;;;;5034443;28;20425;-79
2021/11/07 04:08:20;;;;;;;6.43;4.73;;;21.80;53.30;;;;;;5017932;28;20577;-78
2021/11/07 04:10:46;;;;;;;5.47;4.17;;;21.80;53.40;;;;;;5034212;28;20415;-78
2021/11/07 04:13:12;;;;;;;6.27;4.73;;;21.80;53.30;;;;;;5035528;28;20248;-78
2021/11/07 04:15:37;;;;;;;5.33;4.00;;;21.80;53.30;;;;;;5034819;28;20187;-78
2021/11/07 04:18:05;;;;;;;7.27;5.07;;;21.80;53.30;;;;;;5036069;28;20203;-81
2021/11/07 04:20:31;;;;;;;6.03;5.50;;;21.80;53.30;;;;;;5034310;28;20221;-78
2021/11/07 04:22:56;;;;;;;5.60;4.60;;;21.80;53.30;;;;;;5034133;28;20941;-78
2021/11/07 04:25:23;;;;;;;5.03;4.43;;;21.80;53.40;;;;;;5034767;28;20411;-78
2021/11/07 04:27:49;;;;;;;4.27;3.87;;;21.80;53.30;;;;;;5034315;28;20175;-78
2021/11/07 04:30:14;;;;;;;5.23;4.40;;;21.80;53.30;;;;;;5033745;28;20399;-78
2021/11/07 04:32:42;;;;;;;7.20;5.10;;;21.80;53.30;;;;;;5035015;28;20179;-78
2021/11/07 04:35:09;;;;;;;5.77;4.80;;;21.80;53.30;;;;;;5034319;28;20172;-78
2021/11/07 04:37:42;;;;;;;6.07;4.10;;;21.80;53.30;;;;;;5034187;28;20422;-78
2021/11/07 04:40:10;;;;;;;4.53;3.67;;;21.80;53.40;;;;;;5034695;28;20392;-78
2021/11/07 04:42:36;;;;;;;5.53;4.80;;;21.80;53.40;;;;;;5034492;28;20499;-78
2021/11/07 04:45:03;;;;;;;4.57;3.87;;;21.80;53.40;;;;;;5034862;28;20411;-78
2021/11/07 04:47:28;;;;;;;4.97;4.23;;;21.80;53.40;;;;;;5033963;28;20416;-78
2021/11/07 04:49:54;;;;;;;4.83;4.33;;;21.80;53.40;;;;;;5033451;28;20427;-78
2021/11/07 04:52:20;;;;;;;4.13;3.60;;;21.80;53.40;;;;;;5033897;28;20243;-78
2021/11/07 04:54:46;;;;;;;6.37;4.13;;;21.80;53.40;;;;;;5017252;28;20252;-78
2021/11/07 04:57:12;;;;;;;5.87;4.77;;;21.80;53.40;;;;;;5033567;28;20419;-78
2021/11/07 04:59:38;;;;;;;5.77;4.27;;;21.80;53.40;;;;;;5032906;28;20509;-78
2021/11/07 05:02:04;;;;;;;4.47;4.00;;;21.80;53.40;;;;;;5033043;28;20206;-78
2021/11/07 05:04:30;;;;;;;5.13;4.40;;;21.80;53.40;;;;;;5034071;28;20172;-78
2021/11/07 05:06:56;;;;;;;5.90;4.10;;;21.80;53.40;;;;;;5034488;28;20439;-78
2021/11/07 05:09:23;;;;;;;4.70;3.90;;;21.80;53.40;;;;;;5033434;28;20427;-78
2021/11/07 05:11:49;;;;;;;5.70;4.20;;;21.80;53.40;;;;;;5034479;28;20418;-78
2021/11/07 05:14:15;;;;;;;5.37;4.50;;;21.70;53.40;;;;;;5034087;28;20462;-78
2021/11/07 05:16:42;;;;;;;4.43;3.40;;;21.70;53.40;;;;;;5032650;28;20426;-78
2021/11/07 05:19:08;;;;;;;6.07;4.27;;;21.70;54.00;;;;;;5032927;28;20530;-78
2021/11/07 05:21:34;;;;;;;5.77;4.10;;;21.70;53.40;;;;;;5032854;28;20415;-78
2021/11/07 05:23:59;;;;;;;6.33;3.70;;;21.70;53.40;;;;;;5033969;28;20175;-78
2021/11/07 05:26:25;;;;;;;4.77;4.20;;;21.70;53.40;;;;;;5032975;28;20475;-79
2021/11/07 05:32:13;;;;;;;6.20;4.23;;;21.80;53.50;;;;;;5033875;28;20370;-78
2021/11/07 05:34:41;;;;;;;4.50;3.90;;;21.70;53.50;;;;;;5033661;28;20424;-78
2021/11/07 05:37:08;;;;;;;3.90;3.50;;;21.70;53.50;;;;;;5032815;28;20517;-78
2021/11/07 05:39:34;;;;;;;4.17;3.77;;;21.70;53.50;;;;;;5032881;28;20458;-78
2021/11/07 05:42:00;;;;;;;4.53;3.97;;;21.70;53.50;;;;;;5032992;28;20411;-78
2021/11/07 05:44:27;;;;;;;4.43;3.73;;;21.70;53.50;;;;;;5032751;28;20419;-79
2021/11/07 05:46:52;;;;;;;5.67;3.50;;;21.80;53.50;;;;;;5033796;28;20403;-77
2021/11/07 05:49:18;;;;;;;4.57;3.77;;;21.80;53.50;;;;;;5032609;28;20451;-77
2021/11/07 05:51:44;;;;;;;5.53;3.43;;;21.80;53.50;;;;;;5033158;28;20187;-78
2021/11/07 05:54:10;;;;;;;4.97;4.30;;;21.80;53.50;;;;;;5033275;28;20175;-78
2021/11/07 05:56:39;;;;;;;4.73;4.33;;;21.80;53.50;;;;;;5015932;28;20180;-77
2021/11/07 05:59:05;;;;;;;5.27;4.73;;;21.80;53.50;;;;;;5032754;28;20247;-78
2021/11/07 06:01:31;;;;;;;5.63;4.37;;;21.80;53.40;;;;;;5016649;28;20467;-76
2021/11/07 06:03:57;;;;;;;4.50;3.83;;;21.80;53.40;;;;;;5034635;28;20419;-77
2021/11/07 06:06:23;;;;;;;4.90;3.83;;;21.80;53.40;;;;;;5033259;28;20414;-78
2021/11/07 06:08:49;;;;;;;4.20;3.73;;;21.80;53.40;;;;;;5031692;28;20426;-77
2021/11/07 06:11:14;;;;;;;6.13;4.80;;;21.90;53.50;;;;;;5032143;28;20419;-78
2021/11/07 06:13:40;;;;;;;3.80;3.40;;;21.90;53.40;;;;;;5030847;28;20558;-78
2021/11/07 06:16:06;;;;;;;4.63;3.90;;;21.90;53.40;;;;;;5031998;28;20180;-77
2021/11/07 06:18:32;;;;;;;4.87;3.90;;;21.90;53.40;;;;;;5031713;28;20215;-78
2021/11/07 06:20:58;;;;;;;4.60;4.20;;;21.90;53.40;;;;;;5031921;28;20415;-78
2021/11/07 06:23:25;;;;;;;4.53;3.97;;;21.90;53.40;;;;;;5031892;28;20177;-78
2021/11/07 06:25:51;;;;;;;4.37;3.87;;;21.90;53.40;;;;;;5031918;28;20434;-77
2021/11/07 06:28:17;;;;;;;4.37;3.57;;;21.90;53.40;;;;;;5032235;28;20399;-79
2021/11/07 06:30:47;;;;;;;3.67;3.37;;;21.90;53.40;;;;;;5032011;28;20419;-78
2021/11/07 06:33:13;;;;;;;5.90;3.90;;;21.90;53.40;;;;;;5015848;28;20424;-79
2021/11/07 06:35:38;;;;;;;4.13;3.30;;;21.90;53.40;;;;;;5031905;28;20426;-79
2021/11/07 06:38:05;;;;;;;5.00;3.23;;;21.90;53.40;;;;;;5032696;28;20204;-79
2021/11/07 06:40:31;;;;;;;3.63;3.30;;;22.00;53.40;;;;;;5031929;28;20434;-78
2021/11/07 06:42:59;;;;;;;3.97;3.57;;;22.00;53.40;;;;;;5031956;28;20782;-79
2021/11/07 06:45:24;;;;;;;4.70;3.40;;;22.00;53.40;;;;;;5031412;28;20803;-79
2021/11/07 06:47:50;;;;;;;6.63;3.70;;;22.00;53.40;;;;;;5030944;28;20419;-80
2021/11/07 06:50:17;;;;;;;4.00;3.10;;;22.00;53.80;;;;;;5031816;28;20203;-79
2021/11/07 06:52:44;;;;;;;3.50;3.00;;;22.00;53.50;;;;;;5030921;28;20181;-79
2021/11/07 06:55:11;;;;;;;4.40;3.70;;;22.00;53.40;;;;;;5030401;28;20430;-79
2021/11/07 06:57:38;;;;;;;4.50;4.00;;;22.00;53.40;;;;;;5031707;28;20925;-79
2021/11/07 07:00:11;;;;;;;4.40;3.57;;;22.00;53.40;;;;;;5031034;28;20421;-79
2021/11/07 07:02:39;;;;;;;4.80;3.80;;;22.00;53.40;;;;;;5030856;28;20798;-78
2021/11/07 07:05:10;;;;;;;5.57;3.50;;;22.00;53.40;;;;;;5031877;28;20423;-77
2021/11/07 07:07:39;;;;;;;4.83;3.13;;;21.90;53.30;;;;;;5030516;28;20492;-77
2021/11/07 07:10:09;;;;;;;4.73;3.90;;;22.00;53.40;;;;;;5030532;28;20786;-78
2021/11/07 07:12:50;;;;;;;4.00;3.60;;;21.90;53.30;;;;;;5031249;28;20414;-79
2021/11/07 07:15:22;;;;;;;3.80;3.50;;;22.00;53.40;;;;;;5032018;28;20402;-78
2021/11/07 07:31:26;;;;;;;5.70;4.00;;;22.00;53.40;;;;;;5032021;28;20403;-78
2021/11/07 07:34:09;;;;;;;3.20;2.90;;;22.00;53.40;;;;;;5031195;28;20442;-78
2021/11/07 07:36:35;;;;;;;4.40;3.17;;;22.00;53.50;;;;;;5031031;28;20407;-78
2021/11/07 07:39:03;;;;;;;3.90;3.50;;;22.00;53.50;;;;;;5030882;28;20553;-79
2021/11/07 07:41:29;;;;;;;3.53;3.20;;;22.00;53.50;;;;;;5031833;28;20414;-79
2021/11/07 07:43:56;;;;;;;3.53;2.63;;;22.00;53.40;;;;;;5032112;28;20412;-78
2021/11/07 07:46:22;;;;;;;4.13;3.10;;;22.00;53.40;;;;;;5031229;28;20172;-79
2021/11/07 07:48:48;;;;;;;3.53;2.70;;;22.00;53.40;;;;;;5030738;28;20419;-79
2021/11/07 07:51:16;;;;;;;3.67;2.93;;;22.00;53.40;;;;;;5031356;28;20479;-79
2021/11/07 07:53:44;;;;;;;3.27;2.77;;;22.00;53.40;;;;;;5030315;28;20910;-79
2021/11/07 07:56:11;;;;;;;4.03;3.10;;;22.00;53.40;;;;;;5030041;28;20960;-79
2021/11/07 07:58:37;;;;;;;3.83;3.43;;;22.00;53.40;;;;;;5028659;28;20482;-78
2021/11/07 08:01:05;;;;;;;5.40;4.40;;;22.00;53.40;;;;;;5029124;28;20431;-79
2021/11/07 08:03:32;;;;;;;3.33;3.00;;;22.00;53.40;;;;;;5029003;28;20947;-78
2021/11/07 08:05:58;;;;;;;5.43;3.33;;;22.00;53.30;;;;;;5029678;28;20414;-79
2021/11/07 08:08:24;;;;;;;3.40;3.00;;;22.00;53.30;;;;;;5029620;28;20412;-78
2021/11/07 08:10:49;;;;;;;3.47;2.80;;;22.00;53.30;;;;;;5028447;28;20470;-78
2021/11/07 08:13:15;;;;;;;3.43;3.13;;;22.10;53.40;;;;;;5011823;28;20238;-80
2021/11/07 08:15:41;;;;;;;5.53;3.37;;;22.10;53.40;;;;;;5030036;28;20168;-80
2021/11/07 08:18:07;;;;;;;3.47;3.17;;;22.00;53.30;;;;;;5029668;28;20482;-80
2021/11/07 08:20:33;;;;;;;4.27;3.87;;;22.10;53.40;;;;;;5031793;28;20165;-78
2021/11/07 08:22:59;;;;;;;6.93;3.13;;;22.10;53.40;;;;;;5031835;28;20532;-77
2021/11/07 08:25:25;;;;;;;3.30;3.00;;;22.00;53.30;;;;;;5030918;28;20223;-79
2021/11/07 08:27:58;;;;;;;5.13;3.00;;;22.10;53.40;;;;;;5031623;28;20412;-78
2021/11/07 08:30:26;;;;;;;3.60;2.80;;;22.10;53.40;;;;;;5031761;28;20172;-80
2021/11/07 08:32:52;;;;;;;3.53;2.90;;;22.00;53.30;;;;;;5033340;28;20419;-78
2021/11/07 08:35:18;;;;;;;2.80;2.50;;;22.10;53.40;;;;;;5033249;28;20400;-79
2021/11/07 08:38:05;;;;;;;3.40;2.67;;;22.10;53.40;;;;;;5035708;28;20487;-79
2021/11/07 08:40:46;;;;;;;2.80;2.30;;;22.10;53.40;;;;;;5035428;28;20413;-78
2021/11/07 09:05:33;;;;;;;3.73;2.70;;;22.00;53.40;;;;;;5035733;28;20389;-77
2021/11/07 09:08:15;;;;;;;3.40;2.47;;;22.00;53.40;;;;;;5035366;28;20391;-78
2021/11/07 09:10:42;;;;;;;5.23;3.20;;;22.00;53.40;;;;;;5034738;28;20442;-77
2021/11/07 09:13:10;;;;;;;3.40;2.77;;;22.00;53.40;;;;;;5035264;28;20423;-77
2021/11/07 09:15:38;;;;;;;4.13;3.10;;;22.00;53.40;;;;;;5034389;28;20415;-78
2021/11/07 09:18:05;;;;;;;2.60;2.37;;;22.00;53.40;;;;;;5035124;28;20458;-77
2021/11/07 09:21:01;;;;;;;2.73;2.33;;;22.00;53.40;;;;;;5017191;28;20424;-76
2021/11/07 09:23:29;;;;;;;3.27;2.40;;;22.00;53.40;;;;;;5033378;28;20419;-76
2021/11/07 09:28:37;;;;;;;3.57;3.27;;;22.10;53.50;;;;;;5034796;28;20395;-78
2021/11/07 09:36:39;;;;;;;2.90;2.60;;;22.10;53.50;;;;;;5035251;28;20418;-78
2021/11/07 09:42:55;;;;;;;3.97;2.57;;;22.10;53.50;;;;;;5034991;28;20450;-80
2021/11/07 09:44:42;;;;;;;3.10;2.53;;;22.10;54.00;;;;;;5018379;28;20418;-80
2021/11/07 09:47:10;;;;;;;3.17;2.70;;;22.00;53.40;;;;;;5036113;28;20403;-79
2021/11/07 09:49:45;;;;;;;3.30;3.00;;;22.10;53.50;;;;;;5034129;28;20447;-80
2021/11/07 09:52:16;;;;;;;3.63;2.73;;;22.10;53.50;;;;;;5035247;28;20742;-81
2021/11/07 09:54:47;;;;;;;3.37;3.07;;;22.10;53.50;;;;;;5018015;28;20434;-81
2021/11/07 09:57:17;;;;;;;4.40;2.73;;;22.10;54.00;;;;;;5035790;28;20431;-81
2021/11/07 09:59:44;;;;;;;3.03;2.70;;;22.10;53.40;;;;;;5035313;28;20455;-81
2021/11/07 10:02:12;;;;;;;4.03;3.07;;;22.10;53.40;;;;;;5039800;28;20414;-81
2021/11/07 10:04:39;;;;;;;3.97;3.27;;;22.10;53.40;;;;;;5038980;28;20403;-80
2021/11/07 10:07:14;;;;;;;4.33;2.60;;;22.10;53.40;;;;;;5055299;28;20402;-80
2021/11/07 10:09:42;;;;;;;2.70;2.50;;;22.10;53.50;;;;;;5054970;28;20410;-81
2021/11/07 10:12:17;;;;;;;3.63;3.00;;;22.10;53.40;;;;;;5038225;28;20422;-80
2021/11/07 10:14:50;;;;;;;4.63;2.87;;;22.10;53.40;;;;;;5037917;28;20433;-81
2021/11/07 10:17:40;;;;;;;3.60;2.90;;;22.10;53.50;;;;;;5038116;28;20422;-80
2021/11/07 10:20:31;;;;;;;3.40;3.10;;;22.10;53.40;;;;;;5037667;28;20426;-80
2021/11/07 10:23:11;;;;;;;3.00;2.70;;;22.10;53.50;;;;;;5037405;28;20499;-80
2021/11/07 10:28:53;;;;;;;4.67;3.50;;;22.10;53.50;;;;;;4975041;29;20474;-80
2021/11/07 10:31:30;;;;;;;4.67;3.00;;;22.10;54.20;;;;;;4976303;29;20433;-79
2021/11/07 10:34:23;;;;;;;5.83;3.30;;;22.10;54.10;;;;;;4975032;29;20402;-79
2021/11/07 10:39:38;;;;;;;6.00;3.47;;;22.00;53.40;;;;;;4974551;29;20465;-79
2021/11/07 10:53:03;;;;;;;3.80;3.10;;;22.00;53.40;;;;;;4975275;29;20523;-79
2021/11/07 10:55:32;;;;;;;5.90;3.33;;;22.10;53.50;;;;;;4973425;29;20453;-78
2021/11/07 10:58:03;;;;;;;4.47;3.70;;;22.10;53.50;;;;;;4958042;29;20457;-79
2021/11/07 11:00:44;;;;;;;5.73;3.70;;;22.10;53.50;;;;;;4957155;29;20418;-79
2021/11/07 11:03:21;;;;;;;3.40;3.03;;;22.10;53.50;;;;;;4972963;29;20457;-78
2021/11/07 11:05:52;;;;;;;6.53;3.10;;;22.10;53.50;;;;;;5007652;28;20417;-77
2021/11/07 11:08:23;;;;;;;5.23;3.50;;;22.10;53.50;;;;;;5050170;28;20423;-76
2021/11/07 11:11:08;;;;;;;6.27;2.87;;;22.10;53.50;;;;;;5049307;28;20434;-76
2021/11/07 11:13:52;;;;;;;4.87;3.57;;;22.10;53.50;;;;;;5032891;28;20450;-76
2021/11/07 11:19:20;;;;;;;3.87;3.10;;;22.10;53.50;;;;;;5050650;28;20832;-75
2021/11/07 11:27:08;;;;;;;4.43;2.90;;;22.10;53.50;;;;;;5049849;28;20446;-76
2021/11/07 11:32:28;;;;;;;6.20;3.60;;;22.10;53.50;;;;;;5051649;28;20398;-75
2021/11/07 11:39:56;;;;;;;4.23;3.43;;;22.10;53.50;;;;;;5050970;28;20218;-76
2021/11/07 11:42:31;;;;;;;4.20;2.80;;;22.10;53.50;;;;;;5033041;28;20777;-76
2021/11/07 11:45:28;;;;;;;5.73;3.30;;;22.10;53.50;;;;;;5050253;28;20401;-76
2021/11/07 11:54:30;;;;;;;3.93;2.93;;;22.00;53.50;;;;;;5050193;28;20386;-75
2021/11/07 11:57:20;;;;;;;3.60;3.30;;;22.10;53.50;;;;;;5049137;28;20419;-76
2021/11/07 12:00:16;;;;;;;5.10;3.07;;;22.10;53.60;;;;;;5048975;28;20537;-76
2021/11/07 12:03:00;;;;;;;3.77;3.30;;;22.00;53.50;;;;;;5048294;28;20474;-75
2021/11/07 12:05:41;;;;;;;5.43;3.00;;;22.10;53.60;;;;;;5031269;28;20406;-76
2021/11/07 12:08:16;;;;;;;4.47;3.47;;;22.10;53.60;;;;;;5032630;28;20406;-76
2021/11/07 12:10:53;;;;;;;5.03;3.17;;;22.10;53.60;;;;;;5047961;28;20402;-76
2021/11/07 12:13:44;;;;;;;5.67;3.80;;;22.10;53.60;;;;;;5052051;28;20868;-80
2021/11/07 12:16:17;;;;;;;4.93;3.40;;;22.10;53.60;;;;;;5036422;28;20418;-76
2021/11/07 12:19:10;;;;;;;6.80;3.30;;;22.10;53.50;;;;;;5035594;28;20469;-78
2021/11/07 12:21:50;;;;;;;3.97;3.00;;;22.10;53.50;;;;;;5034390;28;20403;-78
2021/11/07 12:24:21;;;;;;;3.53;2.60;;;22.10;53.50;;;;;;5051262;28;20420;-78
2021/11/07 12:26:48;;;;;;;4.93;2.97;;;22.10;53.50;;;;;;5052170;28;20401;-78
2021/11/07 12:29:40;;;;;;;6.23;3.20;;;22.10;53.50;;;;;;5034737;28;20428;-78
2021/11/07 12:32:07;;;;;;;6.47;3.33;;;22.10;53.50;;;;;;5051643;28;20407;-78
2021/11/07 12:34:56;;;;;;;4.73;2.87;;;22.10;53.50;;;;;;5052100;28;20414;-79
2021/11/07 12:40:46;;;;;;;7.07;3.40;;;22.10;53.50;;;;;;5052695;28;20397;-78
2021/11/07 12:43:35;;;;;;;5.10;3.70;;;22.10;53.50;;;;;;5051892;28;20406;-78
2021/11/07 12:46:16;;;;;;;9.30;3.53;;;22.10;53.50;;;;;;5051102;28;20953;-77
2021/11/07 12:48:49;;;;;;;6.63;3.37;;;22.10;53.50;;;;;;5033453;28;20410;-77
2021/11/07 12:51:21;;;;;;;4.30;3.10;;;22.10;53.50;;;;;;5032677;28;20441;-79
2021/11/07 12:53:58;;;;;;;4.70;3.17;;;22.10;53.50;;;;;;5050818;28;20398;-78
2021/11/07 12:56:35;;;;;;;6.07;3.43;;;22.10;53.50;;;;;;5050809;28;20391;-78
2021/11/07 12:59:07;;;;;;;3.90;3.40;;;22.10;53.50;;;;;;5051191;28;20486;-78
2021/11/07 13:01:59;;;;;;;4.20;2.70;;;22.10;53.50;;;;;;5033899;28;20821;-78
2021/11/07 13:04:26;;;;;;;6.37;3.80;;;22.10;53.50;;;;;;5033622;28;20410;-78
2021/11/07 13:06:58;;;;;;;4.47;3.20;;;22.10;53.50;;;;;;5052567;28;20835;-78
2021/11/07 13:09:34;;;;;;;6.37;3.40;;;22.10;53.50;;;;;;5034362;28;20481;-79
2021/11/07 13:15:17;;;;;;;4.43;3.00;;;22.10;53.50;;;;;;5007936;28;20430;-78
2021/11/07 13:20:49;;;;;;;5.03;3.10;;;22.10;53.50;;;;;;5051523;28;20422;-78
2021/11/07 13:31:08;;;;;;;4.70;3.10;;;22.10;53.50;;;;;;5051576;28;20421;-79
2021/11/07 13:33:38;;;;;;;6.67;3.80;;;22.10;53.50;;;;;;5051304;28;20394;-79
2021/11/07 13:36:05;;;;;;;4.60;3.03;;;22.10;53.50;;;;;;5033619;28;20436;-78
2021/11/07 13:38:38;;;;;;;5.60;3.67;;;22.10;53.50;;;;;;5032837;28;20464;-78
2021/11/07 13:41:26;;;;;;;5.27;3.73;;;22.10;53.50;;;;;;5033905;28;20395;-78
2021/11/07 13:44:15;;;;;;;6.80;3.17;;;22.20;53.50;;;;;;5050848;28;20399;-79
2021/11/07 13:47:05;;;;;;;6.23;2.63;;;22.10;53.40;;;;;;5050435;28;20454;-78
2021/11/07 13:49:31;;;;;;;6.97;4.27;;;22.10;53.50;;;;;;5050439;28;20422;-79
2021/11/07 13:52:01;;;;;;;4.37;3.30;;;22.10;53.50;;;;;;5050528;28;20425;-79
2021/11/07 13:54:28;;;;;;;8.43;3.37;;;22.20;53.50;;;;;;5032324;28;20172;-78
2021/11/07 13:56:54;;;;;;;6.57;3.53;;;22.10;53.50;;;;;;5031799;28;20437;-77
2021/11/07 13:59:34;;;;;;;4.43;2.80;;;22.10;53.50;;;;;;5045604;28;20488;-78
2021/11/07 14:02:03;;;;;;;5.10;3.47;;;22.20;53.50;;;;;;5047852;28;20421;-78
2021/11/07 14:04:46;;;;;;;6.17;3.63;;;22.10;53.40;;;;;;5039057;28;20429;-78
2021/11/07 14:07:15;;;;;;;6.23;2.97;;;22.20;53.50;;;;;;5034026;28;20486;-78
2021/11/07 14:10:02;;;;;;;4.87;3.10;;;22.10;53.50;;;;;;5034413;28;20506;-78
2021/11/07 14:12:40;;;;;;;4.50;3.90;;;22.20;53.50;;;;;;5033292;28;20486;-77
2021/11/07 14:15:18;;;;;;;6.43;3.00;;;22.10;53.50;;;;;;5050810;28;20464;-78
2021/11/07 14:17:46;;;;;;;4.03;3.17;;;22.10;53.50;;;;;;5051599;28;20421;-78
2021/11/07 14:20:14;;;;;;;5.97;4.00;;;22.10;53.50;;;;;;5034180;28;20442;-79
2021/11/07 14:22:59;;;;;;;5.83;2.90;;;22.10;53.50;;;;;;5051442;28;20529;-79
2021/11/07 14:25:24;;;;;;;3.70;3.20;;;22.20;53.50;;;;;;5051091;28;20406;-79
2021/11/07 14:27:57;;;;;;;4.23;2.93;;;22.10;53.50;;;;;;5051480;28;20417;-79
2021/11/07 14:30:33;;;;;;;4.90;3.57;;;22.10;53.50;;;;;;5052910;28;20140;-78
2021/11/07 14:33:10;;;;;;;5.77;3.43;;;22.10;53.50;;;;;;5037807;28;20406;-79
2021/11/07 14:35:36;;;;;;;4.10;2.87;;;22.10;53.50;;;;;;5037339;28;20414;-79
2021/11/07 14:38:09;;;;;;;6.87;3.40;;;22.10;53.50;;;;;;5038255;28;20421;-79
2021/11/07 14:40:47;;;;;;;3.80;2.70;;;22.10;53.50;;;;;;5038023;28;20442;-79
2021/11/07 14:43:29;;;;;;;4.60;2.70;;;22.10;53.50;;;;;;5037401;28;20467;-79
2021/11/07 14:46:18;;;;;;;5.70;2.90;;;22.10;53.50;;;;;;5037812;28;20411;-80
2021/11/07 14:49:14;;;;;;;5.20;3.23;;;22.10;53.50;;;;;;5037558;28;20419;-81
2021/11/07 14:51:50;;;;;;;4.70;3.37;;;22.10;53.50;;;;;;5032519;28;20427;-78
2021/11/07 14:54:39;;;;;;;4.13;3.03;;;22.10;53.50;;;;;;5030727;28;20430;-79
2021/11/07 15:02:46;;;;;;;4.70;2.93;;;22.10;53.60;;;;;;5054022;28;20407;-78
2021/11/07 15:05:34;;;;;;;6.40;3.10;;;22.10;53.60;;;;;;5036745;28;20391;-78
2021/11/07 15:08:24;;;;;;;4.67;2.70;;;22.10;53.50;;;;;;5054269;28;20386;-79
2021/11/07 15:17:36;;;;;;;4.63;3.00;;;22.10;53.60;;;;;;5053701;28;20421;-79
2021/11/07 15:20:44;;;;;;;4.63;3.00;;;22.10;53.60;;;;;;5049576;28;20891;-78
2021/11/07 15:23:27;;;;;;;3.73;3.00;;;22.10;53.60;;;;;;5036775;28;20449;-78
2021/11/07 15:25:53;;;;;;;5.40;3.20;;;22.10;53.60;;;;;;5037006;28;20382;-77